メインページ
METAR-TAF:

METAR-TAF

空港 :

ブカレスト, ルーマニア

アンリ・コアンダ国際空港

緯度: 44-33N, 経度: 026-06E, 海抜: 95m

現時点の気象観測

当レポートは26分前の11:30(UTC)に作成
西/南西の風 5kt、南/南西から西の間で変化する
気温 20°C
湿度 24%
気圧 1021 hPa
視程10km以上
1,500メートル以下は雲なし、積乱雲なし

METAR: LROP 241130Z 24005KT 210V270 CAVOK 20/M01 Q1021 NOSIG

時間: 13:56 (11:56 UTC)

予報

当レポートは56分前の11:00(UTC)に作成
予報は24日の 12時(UTC)から 25日の 12時(UTC)まで有効
西/南西の風 8kt
視程10km以上
1,500メートル以下は雲なし、積乱雲なし
24日の 21時(UTC)から 24日の 23時(UTC)まで徐々に
の風 15kt
25日の 02時(UTC)から 25日の 10時(UTC)まで一時的に
の風 20kt、最大30ktの突風を伴う

TAF: LROP 241100Z 2412/2512 25008KT CAVOK BECMG 2421/2423 08015KT TEMPO 2502/2510 08020G30KT

4,000以上の空港の気象観測と天気予報(METAR報とTAF報)

利用可能な観測所は地図上に黄色い丸と赤い丸で示す。

丸の上にカーソルを重ねると観測所名を参照できる。

次にクリックすると気象観測と天気予報を参照できる。

マップの切り替え:黒色「×」印の緑ボタンをクリックして拡大、「-」印の緑ボタンをクリックして縮小、緑色の三角印をクリックして隣りの地図に切り替え


METAR-TAF: